sensor_id;sensor_type;location;lat;lon;timestamp;temperature;humidity
19809;DHT22;48538;32.784;-96.802;2023-06-14T00:02:00;25.60;99.90
19809;DHT22;48538;32.784;-96.802;2023-06-14T00:04:27;25.60;99.90
19809;DHT22;48538;32.784;-96.802;2023-06-14T00:06:53;25.50;99.90
19809;DHT22;48538;32.784;-96.802;2023-06-14T00:09:22;25.60;99.90
19809;DHT22;48538;32.784;-96.802;2023-06-14T00:11:49;25.50;99.90
19809;DHT22;48538;32.784;-96.802;2023-06-14T00:14:15;25.50;99.90
19809;DHT22;48538;32.784;-96.802;2023-06-14T00:16:41;25.50;99.90
19809;DHT22;48538;32.784;-96.802;2023-06-14T00:19:09;25.50;99.90
19809;DHT22;48538;32.784;-96.802;2023-06-14T00:21:36;25.50;99.90
19809;DHT22;48538;32.784;-96.802;2023-06-14T00:24:04;25.50;99.90
19809;DHT22;48538;32.784;-96.802;2023-06-14T00:26:31;25.50;99.90
19809;DHT22;48538;32.784;-96.802;2023-06-14T00:28:57;25.50;99.90
19809;DHT22;48538;32.784;-96.802;2023-06-14T00:31:23;25.50;99.90
19809;DHT22;48538;32.784;-96.802;2023-06-14T00:33:49;25.50;99.90
19809;DHT22;48538;32.784;-96.802;2023-06-14T00:36:16;25.50;99.90
19809;DHT22;48538;32.784;-96.802;2023-06-14T00:38:42;25.50;99.90
19809;DHT22;48538;32.784;-96.802;2023-06-14T00:41:08;25.50;99.90
19809;DHT22;48538;32.784;-96.802;2023-06-14T00:43:34;25.50;99.90
19809;DHT22;48538;32.784;-96.802;2023-06-14T00:46:01;25.50;99.90
19809;DHT22;48538;32.784;-96.802;2023-06-14T00:48:28;25.50;99.90
19809;DHT22;48538;32.784;-96.802;2023-06-14T00:50:54;25.50;99.90
19809;DHT22;48538;32.784;-96.802;2023-06-14T00:53:21;25.50;99.90
19809;DHT22;48538;32.784;-96.802;2023-06-14T00:55:48;25.50;99.90
19809;DHT22;48538;32.784;-96.802;2023-06-14T00:58:15;25.50;99.90
19809;DHT22;48538;32.784;-96.802;2023-06-14T01:00:42;25.60;99.90
19809;DHT22;48538;32.784;-96.802;2023-06-14T01:03:08;25.60;99.90
19809;DHT22;48538;32.784;-96.802;2023-06-14T01:05:38;25.60;99.90
19809;DHT22;48538;32.784;-96.802;2023-06-14T01:10:47;25.60;99.90
19809;DHT22;48538;32.784;-96.802;2023-06-14T01:13:24;25.60;99.90
19809;DHT22;48538;32.784;-96.802;2023-06-14T01:15:53;25.60;99.90
19809;DHT22;48538;32.784;-96.802;2023-06-14T01:18:21;25.60;99.90
19809;DHT22;48538;32.784;-96.802;2023-06-14T01:20:49;25.50;99.90
19809;DHT22;48538;32.784;-96.802;2023-06-14T01:23:20;25.50;99.90
19809;DHT22;48538;32.784;-96.802;2023-06-14T01:25:48;25.50;99.90
19809;DHT22;48538;32.784;-96.802;2023-06-14T01:28:20;25.50;99.90
19809;DHT22;48538;32.784;-96.802;2023-06-14T01:30:52;25.40;99.90
19809;DHT22;48538;32.784;-96.802;2023-06-14T01:33:26;25.40;99.90
19809;DHT22;48538;32.784;-96.802;2023-06-14T01:35:54;25.40;99.90
19809;DHT22;48538;32.784;-96.802;2023-06-14T01:38:23;25.40;99.90
19809;DHT22;48538;32.784;-96.802;2023-06-14T01:40:52;25.30;99.90
19809;DHT22;48538;32.784;-96.802;2023-06-14T01:43:20;25.40;99.90
19809;DHT22;48538;32.784;-96.802;2023-06-14T01:45:48;25.40;99.90
19809;DHT22;48538;32.784;-96.802;2023-06-14T01:48:14;25.40;99.90
19809;DHT22;48538;32.784;-96.802;2023-06-14T01:50:41;25.30;99.90
19809;DHT22;48538;32.784;-96.802;2023-06-14T01:53:08;25.30;99.90
19809;DHT22;48538;32.784;-96.802;2023-06-14T01:55:35;25.30;99.90
19809;DHT22;48538;32.784;-96.802;2023-06-14T01:58:03;25.20;99.90
19809;DHT22;48538;32.784;-96.802;2023-06-14T02:00:30;25.30;99.90
19809;DHT22;48538;32.784;-96.802;2023-06-14T02:02:56;25.30;99.90
19809;DHT22;48538;32.784;-96.802;2023-06-14T02:05:23;25.30;99.90
19809;DHT22;48538;32.784;-96.802;2023-06-14T02:07:50;25.30;99.90
19809;DHT22;48538;32.784;-96.802;2023-06-14T02:10:16;25.30;99.90
19809;DHT22;48538;32.784;-96.802;2023-06-14T02:12:43;25.40;99.90
19809;DHT22;48538;32.784;-96.802;2023-06-14T02:15:10;25.30;99.90
19809;DHT22;48538;32.784;-96.802;2023-06-14T02:17:46;25.30;99.90
19809;DHT22;48538;32.784;-96.802;2023-06-14T02:20:15;25.30;99.90
19809;DHT22;48538;32.784;-96.802;2023-06-14T02:22:42;25.30;99.90
19809;DHT22;48538;32.784;-96.802;2023-06-14T02:25:09;25.30;99.90
19809;DHT22;48538;32.784;-96.802;2023-06-14T02:27:35;25.30;99.90
19809;DHT22;48538;32.784;-96.802;2023-06-14T02:30:02;25.30;99.90
19809;DHT22;48538;32.784;-96.802;2023-06-14T02:32:29;25.30;99.90
19809;DHT22;48538;32.784;-96.802;2023-06-14T02:34:55;25.30;99.90
19809;DHT22;48538;32.784;-96.802;2023-06-14T02:37:21;25.20;99.90
19809;DHT22;48538;32.784;-96.802;2023-06-14T02:39:48;25.20;99.90
19809;DHT22;48538;32.784;-96.802;2023-06-14T02:42:14;25.20;99.90
19809;DHT22;48538;32.784;-96.802;2023-06-14T02:44:41;25.10;99.90
19809;DHT22;48538;32.784;-96.802;2023-06-14T02:47:07;25.10;99.90
19809;DHT22;48538;32.784;-96.802;2023-06-14T02:49:34;25.20;99.90
19809;DHT22;48538;32.784;-96.802;2023-06-14T02:52:00;25.20;99.90
19809;DHT22;48538;32.784;-96.802;2023-06-14T02:54:26;25.20;99.90
19809;DHT22;48538;32.784;-96.802;2023-06-14T02:56:52;25.20;99.90
19809;DHT22;48538;32.784;-96.802;2023-06-14T02:59:19;25.20;99.90
19809;DHT22;48538;32.784;-96.802;2023-06-14T03:01:47;25.20;99.90
19809;DHT22;48538;32.784;-96.802;2023-06-14T03:04:13;25.10;99.90
19809;DHT22;48538;32.784;-96.802;2023-06-14T03:06:40;25.10;99.90
19809;DHT22;48538;32.784;-96.802;2023-06-14T03:09:06;25.10;99.90
19809;DHT22;48538;32.784;-96.802;2023-06-14T03:11:35;25.10;99.90
19809;DHT22;48538;32.784;-96.802;2023-06-14T03:14:01;25.20;99.90
19809;DHT22;48538;32.784;-96.802;2023-06-14T03:16:30;25.20;99.90
19809;DHT22;48538;32.784;-96.802;2023-06-14T03:18:57;25.20;99.90
19809;DHT22;48538;32.784;-96.802;2023-06-14T03:21:23;25.20;99.90
19809;DHT22;48538;32.784;-96.802;2023-06-14T03:23:50;25.20;99.90
19809;DHT22;48538;32.784;-96.802;2023-06-14T03:26:17;25.20;99.90
19809;DHT22;48538;32.784;-96.802;2023-06-14T03:28:46;25.20;99.90
19809;DHT22;48538;32.784;-96.802;2023-06-14T03:31:13;25.20;99.90
19809;DHT22;48538;32.784;-96.802;2023-06-14T03:33:40;25.20;99.90
19809;DHT22;48538;32.784;-96.802;2023-06-14T03:36:07;25.20;99.90
19809;DHT22;48538;32.784;-96.802;2023-06-14T03:38:34;25.20;99.90
19809;DHT22;48538;32.784;-96.802;2023-06-14T03:41:01;25.30;99.90
19809;DHT22;48538;32.784;-96.802;2023-06-14T03:43:27;25.30;99.90
19809;DHT22;48538;32.784;-96.802;2023-06-14T03:45:55;25.30;99.90
19809;DHT22;48538;32.784;-96.802;2023-06-14T03:48:22;25.30;99.90
19809;DHT22;48538;32.784;-96.802;2023-06-14T03:50:48;25.30;99.90
19809;DHT22;48538;32.784;-96.802;2023-06-14T03:53:15;25.30;99.90
19809;DHT22;48538;32.784;-96.802;2023-06-14T03:55:41;25.30;99.90
19809;DHT22;48538;32.784;-96.802;2023-06-14T03:58:07;25.30;99.90
19809;DHT22;48538;32.784;-96.802;2023-06-14T04:00:34;25.30;99.90
19809;DHT22;48538;32.784;-96.802;2023-06-14T04:03:01;25.20;99.90
19809;DHT22;48538;32.784;-96.802;2023-06-14T04:05:29;25.20;99.90
19809;DHT22;48538;32.784;-96.802;2023-06-14T04:07:55;25.20;99.90
19809;DHT22;48538;32.784;-96.802;2023-06-14T04:10:23;25.20;99.90
19809;DHT22;48538;32.784;-96.802;2023-06-14T04:12:49;25.10;99.90
19809;DHT22;48538;32.784;-96.802;2023-06-14T04:15:16;25.20;99.90
19809;DHT22;48538;32.784;-96.802;2023-06-14T04:17:42;25.10;99.90
19809;DHT22;48538;32.784;-96.802;2023-06-14T04:20:09;25.10;99.90
19809;DHT22;48538;32.784;-96.802;2023-06-14T04:22:36;25.10;99.90
19809;DHT22;48538;32.784;-96.802;2023-06-14T04:25:03;25.10;99.90
19809;DHT22;48538;32.784;-96.802;2023-06-14T04:27:32;25.10;99.90
19809;DHT22;48538;32.784;-96.802;2023-06-14T04:30:01;25.00;99.90
19809;DHT22;48538;32.784;-96.802;2023-06-14T04:32:28;25.00;99.90
19809;DHT22;48538;32.784;-96.802;2023-06-14T04:35:05;25.00;99.90
19809;DHT22;48538;32.784;-96.802;2023-06-14T04:37:32;25.00;99.90
19809;DHT22;48538;32.784;-96.802;2023-06-14T04:39:59;25.10;99.90
19809;DHT22;48538;32.784;-96.802;2023-06-14T04:42:25;25.00;99.90
19809;DHT22;48538;32.784;-96.802;2023-06-14T04:44:57;25.00;99.90
19809;DHT22;48538;32.784;-96.802;2023-06-14T04:47:23;25.00;99.90
19809;DHT22;48538;32.784;-96.802;2023-06-14T04:49:56;25.00;99.90
19809;DHT22;48538;32.784;-96.802;2023-06-14T04:52:22;24.90;99.90
19809;DHT22;48538;32.784;-96.802;2023-06-14T04:54:52;24.90;99.90
19809;DHT22;48538;32.784;-96.802;2023-06-14T04:57:20;24.90;99.90
19809;DHT22;48538;32.784;-96.802;2023-06-14T04:59:48;24.90;99.90
19809;DHT22;48538;32.784;-96.802;2023-06-14T05:02:17;24.80;99.90
19809;DHT22;48538;32.784;-96.802;2023-06-14T05:04:43;24.80;99.90
19809;DHT22;48538;32.784;-96.802;2023-06-14T05:07:10;24.80;99.90
19809;DHT22;48538;32.784;-96.802;2023-06-14T05:09:36;24.80;99.90
19809;DHT22;48538;32.784;-96.802;2023-06-14T05:12:03;24.80;99.90
19809;DHT22;48538;32.784;-96.802;2023-06-14T05:14:30;24.80;99.90
19809;DHT22;48538;32.784;-96.802;2023-06-14T05:16:56;24.80;99.90
19809;DHT22;48538;32.784;-96.802;2023-06-14T05:19:23;24.80;99.90
19809;DHT22;48538;32.784;-96.802;2023-06-14T05:21:49;24.90;99.90
19809;DHT22;48538;32.784;-96.802;2023-06-14T05:24:16;24.80;99.90
19809;DHT22;48538;32.784;-96.802;2023-06-14T05:26:46;24.80;99.90
19809;DHT22;48538;32.784;-96.802;2023-06-14T05:29:12;24.80;99.90
19809;DHT22;48538;32.784;-96.802;2023-06-14T05:31:39;24.80;99.90
19809;DHT22;48538;32.784;-96.802;2023-06-14T05:34:05;24.80;99.90
19809;DHT22;48538;32.784;-96.802;2023-06-14T05:36:31;24.80;99.90
19809;DHT22;48538;32.784;-96.802;2023-06-14T05:38:57;24.70;99.90
19809;DHT22;48538;32.784;-96.802;2023-06-14T05:41:26;24.70;99.90
19809;DHT22;48538;32.784;-96.802;2023-06-14T05:43:54;24.70;99.90
19809;DHT22;48538;32.784;-96.802;2023-06-14T05:46:21;24.70;99.90
19809;DHT22;48538;32.784;-96.802;2023-06-14T05:48:53;24.70;99.90
19809;DHT22;48538;32.784;-96.802;2023-06-14T05:51:20;24.60;99.90
19809;DHT22;48538;32.784;-96.802;2023-06-14T05:53:47;24.60;99.90
19809;DHT22;48538;32.784;-96.802;2023-06-14T05:56:14;24.60;99.90
19809;DHT22;48538;32.784;-96.802;2023-06-14T05:58:41;24.60;99.90
19809;DHT22;48538;32.784;-96.802;2023-06-14T06:01:07;24.60;99.90
19809;DHT22;48538;32.784;-96.802;2023-06-14T06:03:33;24.60;99.90
19809;DHT22;48538;32.784;-96.802;2023-06-14T06:06:00;24.60;99.90
19809;DHT22;48538;32.784;-96.802;2023-06-14T06:08:27;24.60;99.90
19809;DHT22;48538;32.784;-96.802;2023-06-14T06:10:53;24.50;99.90
19809;DHT22;48538;32.784;-96.802;2023-06-14T06:13:19;24.50;99.90
19809;DHT22;48538;32.784;-96.802;2023-06-14T06:15:46;24.50;99.90
19809;DHT22;48538;32.784;-96.802;2023-06-14T06:18:12;24.50;99.90
19809;DHT22;48538;32.784;-96.802;2023-06-14T06:20:38;24.50;99.90
19809;DHT22;48538;32.784;-96.802;2023-06-14T06:23:05;24.40;99.90
19809;DHT22;48538;32.784;-96.802;2023-06-14T06:25:31;24.50;99.90
19809;DHT22;48538;32.784;-96.802;2023-06-14T06:27:58;24.40;99.90
19809;DHT22;48538;32.784;-96.802;2023-06-14T06:30:24;24.50;99.90
19809;DHT22;48538;32.784;-96.802;2023-06-14T06:32:52;24.50;99.90
19809;DHT22;48538;32.784;-96.802;2023-06-14T06:35:19;24.50;99.90
19809;DHT22;48538;32.784;-96.802;2023-06-14T06:37:45;24.60;99.90
19809;DHT22;48538;32.784;-96.802;2023-06-14T06:40:11;24.60;99.90
19809;DHT22;48538;32.784;-96.802;2023-06-14T06:42:38;24.60;99.90
19809;DHT22;48538;32.784;-96.802;2023-06-14T06:45:05;24.60;99.90
19809;DHT22;48538;32.784;-96.802;2023-06-14T06:47:31;24.60;99.90
19809;DHT22;48538;32.784;-96.802;2023-06-14T06:49:58;24.60;99.90
19809;DHT22;48538;32.784;-96.802;2023-06-14T06:52:24;24.60;99.90
19809;DHT22;48538;32.784;-96.802;2023-06-14T06:54:50;24.60;99.90
19809;DHT22;48538;32.784;-96.802;2023-06-14T06:57:21;24.60;99.90
19809;DHT22;48538;32.784;-96.802;2023-06-14T06:59:50;24.60;99.90
19809;DHT22;48538;32.784;-96.802;2023-06-14T07:02:17;24.60;99.90
19809;DHT22;48538;32.784;-96.802;2023-06-14T07:04:44;24.60;99.90
19809;DHT22;48538;32.784;-96.802;2023-06-14T07:07:10;24.60;99.90
19809;DHT22;48538;32.784;-96.802;2023-06-14T07:09:36;24.60;99.90
19809;DHT22;48538;32.784;-96.802;2023-06-14T07:12:03;24.50;99.90
19809;DHT22;48538;32.784;-96.802;2023-06-14T07:14:29;24.50;99.90
19809;DHT22;48538;32.784;-96.802;2023-06-14T07:16:55;24.50;99.90
19809;DHT22;48538;32.784;-96.802;2023-06-14T07:19:22;24.50;99.90
19809;DHT22;48538;32.784;-96.802;2023-06-14T07:21:48;24.50;99.90
19809;DHT22;48538;32.784;-96.802;2023-06-14T07:24:14;24.50;99.90
19809;DHT22;48538;32.784;-96.802;2023-06-14T07:26:41;24.40;99.90
19809;DHT22;48538;32.784;-96.802;2023-06-14T07:29:07;24.40;99.90
19809;DHT22;48538;32.784;-96.802;2023-06-14T07:31:33;24.40;99.90
19809;DHT22;48538;32.784;-96.802;2023-06-14T07:34:00;24.30;99.90
19809;DHT22;48538;32.784;-96.802;2023-06-14T07:36:26;24.30;99.90
19809;DHT22;48538;32.784;-96.802;2023-06-14T07:38:52;24.30;99.90
19809;DHT22;48538;32.784;-96.802;2023-06-14T07:41:20;24.20;99.90
19809;DHT22;48538;32.784;-96.802;2023-06-14T07:43:50;24.30;99.90
19809;DHT22;48538;32.784;-96.802;2023-06-14T07:46:16;24.20;99.90
19809;DHT22;48538;32.784;-96.802;2023-06-14T07:48:43;24.20;99.90
19809;DHT22;48538;32.784;-96.802;2023-06-14T07:51:09;24.10;99.90
19809;DHT22;48538;32.784;-96.802;2023-06-14T07:53:35;24.20;99.90
19809;DHT22;48538;32.784;-96.802;2023-06-14T07:56:01;24.20;99.90
19809;DHT22;48538;32.784;-96.802;2023-06-14T07:58:28;24.20;99.90
19809;DHT22;48538;32.784;-96.802;2023-06-14T08:00:54;24.20;99.90
19809;DHT22;48538;32.784;-96.802;2023-06-14T08:03:21;24.10;99.90
19809;DHT22;48538;32.784;-96.802;2023-06-14T08:05:48;24.10;99.90
19809;DHT22;48538;32.784;-96.802;2023-06-14T08:08:14;24.10;99.90
19809;DHT22;48538;32.784;-96.802;2023-06-14T08:10:41;24.00;99.90
19809;DHT22;48538;32.784;-96.802;2023-06-14T08:13:07;24.00;99.90
19809;DHT22;48538;32.784;-96.802;2023-06-14T08:15:35;24.00;99.90
19809;DHT22;48538;32.784;-96.802;2023-06-14T08:18:01;24.00;99.90
19809;DHT22;48538;32.784;-96.802;2023-06-14T08:20:28;23.90;99.90
19809;DHT22;48538;32.784;-96.802;2023-06-14T08:22:56;23.90;99.90
19809;DHT22;48538;32.784;-96.802;2023-06-14T08:25:22;24.00;99.90
19809;DHT22;48538;32.784;-96.802;2023-06-14T08:27:49;24.00;99.90
19809;DHT22;48538;32.784;-96.802;2023-06-14T08:30:16;24.00;99.90
19809;DHT22;48538;32.784;-96.802;2023-06-14T08:32:43;24.00;99.90
19809;DHT22;48538;32.784;-96.802;2023-06-14T08:35:09;24.00;99.90
19809;DHT22;48538;32.784;-96.802;2023-06-14T08:37:41;24.00;99.90
19809;DHT22;48538;32.784;-96.802;2023-06-14T08:40:29;24.00;99.90
19809;DHT22;48538;32.784;-96.802;2023-06-14T08:42:55;24.00;99.90
19809;DHT22;48538;32.784;-96.802;2023-06-14T08:45:23;24.00;99.90
19809;DHT22;48538;32.784;-96.802;2023-06-14T08:47:52;24.00;99.90
19809;DHT22;48538;32.784;-96.802;2023-06-14T08:50:24;23.90;99.90
19809;DHT22;48538;32.784;-96.802;2023-06-14T08:52:57;23.90;99.90
19809;DHT22;48538;32.784;-96.802;2023-06-14T08:55:27;23.90;99.90
19809;DHT22;48538;32.784;-96.802;2023-06-14T08:57:58;23.80;99.90
19809;DHT22;48538;32.784;-96.802;2023-06-14T09:00:25;23.80;99.90
19809;DHT22;48538;32.784;-96.802;2023-06-14T09:02:53;23.80;99.90
19809;DHT22;48538;32.784;-96.802;2023-06-14T09:05:26;23.80;99.90
19809;DHT22;48538;32.784;-96.802;2023-06-14T09:07:55;23.80;99.90
19809;DHT22;48538;32.784;-96.802;2023-06-14T09:10:27;23.80;99.90
19809;DHT22;48538;32.784;-96.802;2023-06-14T09:12:55;23.70;99.90
19809;DHT22;48538;32.784;-96.802;2023-06-14T09:15:21;23.70;99.90
19809;DHT22;48538;32.784;-96.802;2023-06-14T09:17:48;23.70;99.90
19809;DHT22;48538;32.784;-96.802;2023-06-14T09:20:14;23.70;99.90
19809;DHT22;48538;32.784;-96.802;2023-06-14T09:22:44;23.80;99.90
19809;DHT22;48538;32.784;-96.802;2023-06-14T09:25:11;23.70;99.90
19809;DHT22;48538;32.784;-96.802;2023-06-14T09:27:46;23.80;99.90
19809;DHT22;48538;32.784;-96.802;2023-06-14T09:30:13;23.80;99.90
19809;DHT22;48538;32.784;-96.802;2023-06-14T09:32:39;23.70;99.90
19809;DHT22;48538;32.784;-96.802;2023-06-14T09:35:07;23.80;99.90
19809;DHT22;48538;32.784;-96.802;2023-06-14T09:37:34;23.70;99.90
19809;DHT22;48538;32.784;-96.802;2023-06-14T09:40:01;23.80;99.90
19809;DHT22;48538;32.784;-96.802;2023-06-14T09:42:29;23.80;99.90
19809;DHT22;48538;32.784;-96.802;2023-06-14T09:44:56;23.70;99.90
19809;DHT22;48538;32.784;-96.802;2023-06-14T09:47:24;23.80;99.90
19809;DHT22;48538;32.784;-96.802;2023-06-14T09:49:51;23.80;99.90
19809;DHT22;48538;32.784;-96.802;2023-06-14T09:52:21;23.80;99.90
19809;DHT22;48538;32.784;-96.802;2023-06-14T09:54:53;23.80;99.90
19809;DHT22;48538;32.784;-96.802;2023-06-14T09:57:24;23.80;99.90
19809;DHT22;48538;32.784;-96.802;2023-06-14T09:59:57;23.80;99.90
19809;DHT22;48538;32.784;-96.802;2023-06-14T10:02:37;23.80;99.90
19809;DHT22;48538;32.784;-96.802;2023-06-14T10:05:06;23.80;99.90
19809;DHT22;48538;32.784;-96.802;2023-06-14T10:07:38;23.80;99.90
19809;DHT22;48538;32.784;-96.802;2023-06-14T10:10:06;23.80;99.90
19809;DHT22;48538;32.784;-96.802;2023-06-14T10:12:33;23.80;99.90
19809;DHT22;48538;32.784;-96.802;2023-06-14T10:15:00;23.80;99.90
19809;DHT22;48538;32.784;-96.802;2023-06-14T10:17:59;23.70;99.90
19809;DHT22;48538;32.784;-96.802;2023-06-14T10:23:23;23.70;99.90
19809;DHT22;48538;32.784;-96.802;2023-06-14T10:25:54;23.70;99.90
19809;DHT22;48538;32.784;-96.802;2023-06-14T10:28:22;23.70;99.90
19809;DHT22;48538;32.784;-96.802;2023-06-14T10:33:50;23.70;99.90
19809;DHT22;48538;32.784;-96.802;2023-06-14T10:39:09;23.80;99.90
19809;DHT22;48538;32.784;-96.802;2023-06-14T10:41:38;23.70;99.90
19809;DHT22;48538;32.784;-96.802;2023-06-14T10:46:45;23.80;99.90
19809;DHT22;48538;32.784;-96.802;2023-06-14T10:49:12;23.80;99.90
19809;DHT22;48538;32.784;-96.802;2023-06-14T10:51:41;23.80;99.90
19809;DHT22;48538;32.784;-96.802;2023-06-14T10:54:13;23.80;99.90
19809;DHT22;48538;32.784;-96.802;2023-06-14T10:59:13;23.80;99.90
19809;DHT22;48538;32.784;-96.802;2023-06-14T11:04:20;23.90;99.90
19809;DHT22;48538;32.784;-96.802;2023-06-14T11:06:47;23.90;99.90
19809;DHT22;48538;32.784;-96.802;2023-06-14T11:11:46;23.90;99.90
19809;DHT22;48538;32.784;-96.802;2023-06-14T11:14:14;23.90;99.90
19809;DHT22;48538;32.784;-96.802;2023-06-14T11:16:40;24.00;99.90
19809;DHT22;48538;32.784;-96.802;2023-06-14T11:19:07;24.00;99.90
19809;DHT22;48538;32.784;-96.802;2023-06-14T11:21:33;24.00;99.90
19809;DHT22;48538;32.784;-96.802;2023-06-14T11:24:00;24.00;99.90
19809;DHT22;48538;32.784;-96.802;2023-06-14T11:26:30;24.00;99.90
19809;DHT22;48538;32.784;-96.802;2023-06-14T11:29:00;24.00;99.90
19809;DHT22;48538;32.784;-96.802;2023-06-14T11:31:27;24.10;99.90
19809;DHT22;48538;32.784;-96.802;2023-06-14T11:33:56;24.10;99.90
19809;DHT22;48538;32.784;-96.802;2023-06-14T11:36:23;24.00;99.90
19809;DHT22;48538;32.784;-96.802;2023-06-14T11:38:59;24.10;99.90
19809;DHT22;48538;32.784;-96.802;2023-06-14T11:41:26;24.10;99.90
19809;DHT22;48538;32.784;-96.802;2023-06-14T11:43:57;24.10;99.90
19809;DHT22;48538;32.784;-96.802;2023-06-14T11:46:26;24.10;99.90
19809;DHT22;48538;32.784;-96.802;2023-06-14T11:48:53;24.10;99.90
19809;DHT22;48538;32.784;-96.802;2023-06-14T11:51:19;24.10;99.90
19809;DHT22;48538;32.784;-96.802;2023-06-14T11:53:46;24.10;99.90
19809;DHT22;48538;32.784;-96.802;2023-06-14T11:56:13;24.10;99.90
19809;DHT22;48538;32.784;-96.802;2023-06-14T11:58:40;24.10;99.90
19809;DHT22;48538;32.784;-96.802;2023-06-14T12:01:08;24.20;99.90
19809;DHT22;48538;32.784;-96.802;2023-06-14T12:03:34;24.10;99.90
19809;DHT22;48538;32.784;-96.802;2023-06-14T12:06:05;24.10;99.90
19809;DHT22;48538;32.784;-96.802;2023-06-14T12:08:34;24.20;99.90
19809;DHT22;48538;32.784;-96.802;2023-06-14T12:11:10;24.20;99.90
19809;DHT22;48538;32.784;-96.802;2023-06-14T12:13:43;24.20;99.90
19809;DHT22;48538;32.784;-96.802;2023-06-14T12:16:10;24.20;99.90
19809;DHT22;48538;32.784;-96.802;2023-06-14T12:18:39;24.20;99.90
19809;DHT22;48538;32.784;-96.802;2023-06-14T12:21:06;24.30;99.90
19809;DHT22;48538;32.784;-96.802;2023-06-14T12:23:49;24.30;99.90
19809;DHT22;48538;32.784;-96.802;2023-06-14T12:26:18;24.30;99.90
19809;DHT22;48538;32.784;-96.802;2023-06-14T12:28:48;24.30;99.90
19809;DHT22;48538;32.784;-96.802;2023-06-14T12:31:15;24.30;99.90
19809;DHT22;48538;32.784;-96.802;2023-06-14T12:33:42;24.30;99.90
19809;DHT22;48538;32.784;-96.802;2023-06-14T12:36:09;24.30;99.90
19809;DHT22;48538;32.784;-96.802;2023-06-14T12:38:36;24.30;99.90
19809;DHT22;48538;32.784;-96.802;2023-06-14T12:41:03;24.40;99.90
19809;DHT22;48538;32.784;-96.802;2023-06-14T12:43:30;24.40;99.90
19809;DHT22;48538;32.784;-96.802;2023-06-14T12:45:56;24.40;99.90
19809;DHT22;48538;32.784;-96.802;2023-06-14T12:48:22;24.50;99.90
19809;DHT22;48538;32.784;-96.802;2023-06-14T12:50:49;24.50;99.90
19809;DHT22;48538;32.784;-96.802;2023-06-14T12:53:15;24.50;99.90
19809;DHT22;48538;32.784;-96.802;2023-06-14T12:55:41;24.50;99.90
19809;DHT22;48538;32.784;-96.802;2023-06-14T12:58:08;24.50;99.90
19809;DHT22;48538;32.784;-96.802;2023-06-14T13:00:34;24.50;99.90
19809;DHT22;48538;32.784;-96.802;2023-06-14T13:03:01;24.50;99.90
19809;DHT22;48538;32.784;-96.802;2023-06-14T13:05:27;24.60;99.90
19809;DHT22;48538;32.784;-96.802;2023-06-14T13:07:54;24.60;99.90
19809;DHT22;48538;32.784;-96.802;2023-06-14T13:10:20;24.60;99.90
19809;DHT22;48538;32.784;-96.802;2023-06-14T13:12:46;24.60;99.90
19809;DHT22;48538;32.784;-96.802;2023-06-14T13:15:12;24.60;99.90
19809;DHT22;48538;32.784;-96.802;2023-06-14T13:17:39;24.70;99.90
19809;DHT22;48538;32.784;-96.802;2023-06-14T13:20:09;24.70;99.90
19809;DHT22;48538;32.784;-96.802;2023-06-14T13:22:35;24.80;99.90
19809;DHT22;48538;32.784;-96.802;2023-06-14T13:25:03;24.80;99.90
19809;DHT22;48538;32.784;-96.802;2023-06-14T13:27:29;24.80;99.90
19809;DHT22;48538;32.784;-96.802;2023-06-14T13:29:55;24.90;99.90
19809;DHT22;48538;32.784;-96.802;2023-06-14T13:32:22;24.90;99.90
19809;DHT22;48538;32.784;-96.802;2023-06-14T13:34:49;24.90;99.90
19809;DHT22;48538;32.784;-96.802;2023-06-14T13:37:15;24.90;99.90
19809;DHT22;48538;32.784;-96.802;2023-06-14T13:39:42;25.00;99.90
19809;DHT22;48538;32.784;-96.802;2023-06-14T13:42:08;25.00;99.90
19809;DHT22;48538;32.784;-96.802;2023-06-14T13:44:34;25.00;99.90
19809;DHT22;48538;32.784;-96.802;2023-06-14T13:47:00;25.00;99.90
19809;DHT22;48538;32.784;-96.802;2023-06-14T13:49:27;25.00;99.90
19809;DHT22;48538;32.784;-96.802;2023-06-14T13:51:53;25.00;99.90
19809;DHT22;48538;32.784;-96.802;2023-06-14T13:54:20;25.10;99.90
19809;DHT22;48538;32.784;-96.802;2023-06-14T13:56:47;25.10;99.90
19809;DHT22;48538;32.784;-96.802;2023-06-14T13:59:14;25.10;99.90
19809;DHT22;48538;32.784;-96.802;2023-06-14T14:01:40;25.20;99.90
19809;DHT22;48538;32.784;-96.802;2023-06-14T14:04:06;25.10;99.90
19809;DHT22;48538;32.784;-96.802;2023-06-14T14:06:33;25.20;99.90
19809;DHT22;48538;32.784;-96.802;2023-06-14T14:09:00;25.20;99.90
19809;DHT22;48538;32.784;-96.802;2023-06-14T14:11:26;25.20;99.90
19809;DHT22;48538;32.784;-96.802;2023-06-14T14:13:54;25.10;99.90
19809;DHT22;48538;32.784;-96.802;2023-06-14T14:16:20;25.20;99.90
19809;DHT22;48538;32.784;-96.802;2023-06-14T14:18:46;25.20;99.90
19809;DHT22;48538;32.784;-96.802;2023-06-14T14:21:13;25.20;99.90
19809;DHT22;48538;32.784;-96.802;2023-06-14T14:23:39;25.20;99.90
19809;DHT22;48538;32.784;-96.802;2023-06-14T14:26:05;25.20;99.90
19809;DHT22;48538;32.784;-96.802;2023-06-14T14:28:32;25.20;99.90
19809;DHT22;48538;32.784;-96.802;2023-06-14T14:30:59;25.30;99.90
19809;DHT22;48538;32.784;-96.802;2023-06-14T14:33:25;25.40;99.90
19809;DHT22;48538;32.784;-96.802;2023-06-14T14:35:52;25.30;99.90
19809;DHT22;48538;32.784;-96.802;2023-06-14T14:38:18;25.40;99.90
19809;DHT22;48538;32.784;-96.802;2023-06-14T14:40:44;25.40;99.90
19809;DHT22;48538;32.784;-96.802;2023-06-14T14:43:11;25.40;99.90
19809;DHT22;48538;32.784;-96.802;2023-06-14T14:45:37;25.50;99.90
19809;DHT22;48538;32.784;-96.802;2023-06-14T14:48:04;25.50;99.90
19809;DHT22;48538;32.784;-96.802;2023-06-14T14:50:30;25.50;99.90
19809;DHT22;48538;32.784;-96.802;2023-06-14T14:52:57;25.50;99.90
19809;DHT22;48538;32.784;-96.802;2023-06-14T14:55:23;25.60;99.90
19809;DHT22;48538;32.784;-96.802;2023-06-14T14:57:50;25.60;99.90
19809;DHT22;48538;32.784;-96.802;2023-06-14T15:00:16;25.70;99.90
19809;DHT22;48538;32.784;-96.802;2023-06-14T15:02:43;25.70;99.90
19809;DHT22;48538;32.784;-96.802;2023-06-14T15:05:09;25.70;99.90
19809;DHT22;48538;32.784;-96.802;2023-06-14T15:07:35;25.70;99.90
19809;DHT22;48538;32.784;-96.802;2023-06-14T15:10:02;25.80;99.90
19809;DHT22;48538;32.784;-96.802;2023-06-14T15:12:28;25.80;99.90
19809;DHT22;48538;32.784;-96.802;2023-06-14T15:14:54;25.90;99.90
19809;DHT22;48538;32.784;-96.802;2023-06-14T15:17:21;25.90;99.90
19809;DHT22;48538;32.784;-96.802;2023-06-14T15:19:49;25.90;99.90
19809;DHT22;48538;32.784;-96.802;2023-06-14T15:22:16;25.90;99.90
19809;DHT22;48538;32.784;-96.802;2023-06-14T15:24:43;26.00;99.90
19809;DHT22;48538;32.784;-96.802;2023-06-14T15:27:13;26.00;99.90